createdAt,value
2017-03-11T00:00:54.327Z,2.89
2017-03-11T00:02:03.413Z,2.97
2017-03-11T00:03:12.470Z,3.13
2017-03-11T00:04:21.163Z,3.15
2017-03-11T00:05:30.625Z,3.17
2017-03-11T00:06:40.077Z,3.14
2017-03-11T00:07:49.538Z,3.05
2017-03-11T00:08:58.607Z,2.96
2017-03-11T00:10:08.049Z,2.82
2017-03-11T00:11:17.423Z,2.87
2017-03-11T00:12:26.536Z,2.99
2017-03-11T00:13:35.634Z,3.08
2017-03-11T00:14:45.857Z,3.15
2017-03-11T00:15:55.351Z,3.2
2017-03-11T00:17:04.042Z,3.29
2017-03-11T00:18:13.496Z,3.21
2017-03-11T00:19:22.973Z,3.45
2017-03-11T00:20:32.052Z,3.5
2017-03-11T00:21:41.891Z,3.58
2017-03-11T00:22:51.662Z,3.75
2017-03-11T00:24:01.494Z,3.83
2017-03-11T00:25:10.944Z,3.9
2017-03-11T00:26:20.413Z,3.91
2017-03-11T00:27:29.895Z,3.97
2017-03-11T00:28:39.746Z,4.04
2017-03-11T00:29:49.614Z,4.06
2017-03-11T00:30:58.698Z,4.09
2017-03-11T00:32:08.175Z,4.14
2017-03-11T00:33:17.252Z,4.16
2017-03-11T00:34:25.953Z,4.32
2017-03-11T00:35:36.202Z,4.27
2017-03-11T00:36:45.267Z,4.42
2017-03-11T00:37:55.119Z,4.45
2017-03-11T00:39:04.565Z,4.36
2017-03-11T00:40:14.403Z,4.54
2017-03-11T00:41:24.285Z,4.6
2017-03-11T00:42:33.355Z,4.7
2017-03-11T00:43:42.461Z,4.67
2017-03-11T00:44:52.322Z,4.69
2017-03-11T00:46:01.455Z,4.55
2017-03-11T00:47:10.933Z,4.77
2017-03-11T00:48:20.780Z,4.7
2017-03-11T00:49:29.465Z,4.69
2017-03-11T00:50:38.534Z,4.72
2017-03-11T00:51:47.630Z,4.73
2017-03-11T00:52:57.096Z,4.73
2017-03-11T00:54:06.175Z,4.82
2017-03-11T00:55:16.005Z,4.78
2017-03-11T00:56:25.467Z,4.84
2017-03-11T00:57:35.295Z,4.86
2017-03-11T00:58:44.381Z,4.77
2017-03-11T00:59:54.216Z,4.92
2017-03-11T01:01:03.666Z,4.88
2017-03-11T01:02:12.743Z,4.86
2017-03-11T01:03:22.208Z,4.86
2017-03-11T01:04:32.067Z,4.7
2017-03-11T01:05:41.528Z,4.72
2017-03-11T01:06:50.482Z,4.6
2017-03-11T01:07:59.954Z,4.59
2017-03-11T01:09:09.016Z,4.58
2017-03-11T01:10:18.484Z,4.54
2017-03-11T01:11:27.985Z,4.44
2017-03-11T01:12:37.052Z,4.47
2017-03-11T01:13:46.117Z,4.36
2017-03-11T01:14:55.560Z,4.4
2017-03-11T01:16:05.436Z,4.41
2017-03-11T01:17:14.504Z,4.45
2017-03-11T01:18:24.208Z,4.45
2017-03-11T01:19:34.091Z,4.41
2017-03-11T01:20:43.552Z,4.4
2017-03-11T01:21:52.995Z,4.42
2017-03-11T01:23:02.088Z,4.51
2017-03-11T01:24:11.542Z,4.41
2017-03-11T01:25:20.223Z,4.55
2017-03-11T01:26:29.297Z,4.52
2017-03-11T01:27:38.376Z,4.5
2017-03-11T01:28:47.827Z,4.54
2017-03-11T01:29:57.307Z,4.47
2017-03-11T01:31:06.781Z,4.45
2017-03-11T01:32:15.489Z,4.45
2017-03-11T01:33:25.345Z,4.44
2017-03-11T01:34:35.592Z,4.58
2017-03-11T01:35:45.360Z,4.59
2017-03-11T01:36:54.448Z,4.62
2017-03-11T01:38:03.549Z,4.66
2017-03-11T01:39:12.640Z,4.69
2017-03-11T01:40:22.082Z,4.7
2017-03-11T01:41:31.919Z,4.88
2017-03-11T01:42:41.383Z,4.92
2017-03-11T01:43:50.853Z,4.86
2017-03-11T01:45:00.305Z,4.77
2017-03-11T01:46:09.373Z,4.89
2017-03-11T01:47:19.153Z,4.84
2017-03-11T01:48:28.618Z,4.84
2017-03-11T01:49:37.321Z,4.91
2017-03-11T01:50:47.169Z,4.92
2017-03-11T01:51:56.615Z,4.92
2017-03-11T01:53:06.447Z,4.97
2017-03-11T01:54:15.518Z,5
2017-03-11T01:55:24.211Z,5.03
2017-03-11T01:56:33.674Z,5.07
2017-03-11T01:57:43.144Z,5.04
2017-03-11T01:58:52.904Z,5.02
2017-03-11T02:00:02.767Z,5.06
2017-03-11T02:01:11.847Z,5.12
2017-03-11T02:02:21.315Z,5.12
2017-03-11T02:03:30.759Z,5.15
2017-03-11T02:04:40.227Z,5.18
2017-03-11T02:05:49.297Z,5.22
2017-03-11T02:06:58.393Z,5.24
2017-03-11T02:08:07.849Z,5.24
2017-03-11T02:09:17.316Z,5.18
2017-03-11T02:10:26.657Z,5.27
2017-03-11T02:11:36.109Z,5.27
2017-03-11T02:12:45.569Z,5.27
2017-03-11T02:13:55.024Z,5.31
2017-03-11T02:15:04.084Z,5.25
2017-03-11T02:16:13.147Z,5.25
2017-03-11T02:17:23.356Z,5.3
2017-03-11T02:18:33.975Z,5.28
2017-03-11T02:19:42.705Z,5.39
2017-03-11T02:20:52.165Z,5.28
2017-03-11T02:22:00.877Z,5.38
2017-03-11T02:23:09.940Z,5.24
2017-03-11T02:24:19.034Z,5.42
2017-03-11T02:25:29.263Z,5.4
2017-03-11T02:26:39.145Z,5.31
2017-03-11T02:27:48.836Z,5.4
2017-03-11T02:28:58.290Z,5.46
2017-03-11T02:30:08.133Z,5.38
2017-03-11T02:31:17.602Z,5.36
2017-03-11T02:32:26.677Z,5.33
2017-03-11T02:33:35.756Z,5.43
2017-03-11T02:34:45.199Z,5.45
2017-03-11T02:35:55.422Z,5.4
2017-03-11T02:37:05.276Z,5.39
2017-03-11T02:38:14.742Z,5.38
2017-03-11T02:39:24.062Z,5.45
2017-03-11T02:40:33.528Z,5.51
2017-03-11T02:41:42.978Z,5.51
2017-03-11T02:42:52.814Z,5.48
2017-03-11T02:44:01.870Z,5.4
2017-03-11T02:45:10.942Z,5.39
2017-03-11T02:46:20.797Z,5.46
2017-03-11T02:47:29.860Z,5.46
2017-03-11T02:48:38.916Z,5.43
2017-03-11T02:49:47.620Z,5.39
2017-03-11T02:50:57.074Z,5.43
2017-03-11T02:52:06.527Z,5.42
2017-03-11T02:53:15.215Z,5.45
2017-03-11T02:54:24.666Z,5.54
2017-03-11T02:55:34.511Z,5.51
2017-03-11T02:56:44.223Z,5.45
2017-03-11T02:57:54.062Z,5.53
2017-03-11T02:59:03.147Z,5.53
2017-03-11T03:00:12.223Z,5.48
2017-03-11T03:01:21.687Z,5.53
2017-03-11T03:02:30.752Z,5.48
2017-03-11T03:03:40.248Z,5.49
2017-03-11T03:04:49.315Z,5.56
2017-03-11T03:05:58.418Z,5.48
2017-03-11T03:07:08.256Z,5.49
2017-03-11T03:08:17.197Z,5.48
2017-03-11T03:09:27.085Z,5.51
2017-03-11T03:10:36.155Z,5.56
2017-03-11T03:11:45.221Z,5.57
2017-03-11T03:12:54.685Z,5.42
2017-03-11T03:14:03.756Z,5.56
2017-03-11T03:15:13.209Z,5.48
2017-03-11T03:16:22.292Z,5.53
2017-03-11T03:17:30.986Z,5.45
2017-03-11T03:18:40.427Z,5.51
2017-03-11T03:19:50.501Z,5.49
2017-03-11T03:20:59.221Z,5.45
2017-03-11T03:22:08.689Z,5.39
2017-03-11T03:23:18.157Z,5.42
2017-03-11T03:24:27.641Z,5.42
2017-03-11T03:25:36.725Z,5.4
2017-03-11T03:26:46.961Z,5.46
2017-03-11T03:27:56.407Z,5.51
2017-03-11T03:29:06.277Z,5.4
2017-03-11T03:30:15.353Z,5.49
2017-03-11T03:31:25.427Z,5.53
2017-03-11T03:32:34.873Z,5.58
2017-03-11T03:33:44.328Z,5.63
2017-03-11T03:34:53.785Z,5.54
2017-03-11T03:36:02.476Z,5.56
2017-03-11T03:37:11.569Z,5.58
2017-03-11T03:38:21.435Z,5.53
2017-03-11T03:39:30.911Z,5.54
2017-03-11T03:40:39.987Z,5.56
2017-03-11T03:41:49.064Z,5.48
2017-03-11T03:42:58.921Z,5.48
2017-03-11T03:44:07.611Z,5.45
2017-03-11T03:45:16.699Z,5.46
2017-03-11T03:46:25.792Z,5.56
2017-03-11T03:47:35.668Z,5.48
2017-03-11T03:48:45.520Z,5.51
2017-03-11T03:49:54.980Z,5.49
2017-03-11T03:51:04.428Z,5.45
2017-03-11T03:52:13.875Z,5.46
2017-03-11T03:53:23.330Z,5.45
2017-03-11T03:54:33.925Z,5.45
2017-03-11T03:55:43.761Z,5.39
2017-03-11T03:56:52.456Z,5.45
2017-03-11T03:58:01.935Z,5.53
2017-03-11T03:59:11.011Z,5.49
2017-03-11T04:00:20.707Z,5.58
2017-03-11T04:01:30.159Z,5.58
2017-03-11T04:02:39.627Z,5.61
2017-03-11T04:03:49.844Z,5.57
2017-03-11T04:04:58.552Z,5.48
2017-03-11T04:06:08.770Z,5.39
2017-03-11T04:07:17.832Z,5.35
2017-03-11T04:08:27.309Z,5.39
2017-03-11T04:09:36.779Z,5.28
2017-03-11T04:10:46.231Z,5.3
2017-03-11T04:11:55.182Z,5.3
2017-03-11T04:13:04.265Z,5.38
2017-03-11T04:14:13.358Z,5.3
2017-03-11T04:15:22.833Z,5.4
2017-03-11T04:16:32.673Z,5.39
2017-03-11T04:17:42.124Z,5.49
2017-03-11T04:18:50.814Z,5.49
2017-03-11T04:20:00.655Z,5.45
2017-03-11T04:21:09.352Z,5.53
2017-03-11T04:22:18.040Z,5.53
2017-03-11T04:23:27.728Z,5.57
2017-03-11T04:24:37.199Z,5.48
2017-03-11T04:25:46.269Z,5.51
2017-03-11T04:26:55.720Z,5.51
2017-03-11T04:28:05.161Z,5.51
2017-03-11T04:29:14.246Z,5.46
2017-03-11T04:30:23.320Z,5.48
2017-03-11T04:31:33.145Z,5.46
2017-03-11T04:32:41.843Z,5.46
2017-03-11T04:33:50.904Z,5.39
2017-03-11T04:35:00.366Z,5.39
2017-03-11T04:36:09.815Z,5.4
2017-03-11T04:37:19.264Z,5.42
2017-03-11T04:38:28.327Z,5.35
2017-03-11T04:39:38.548Z,5.35
2017-03-11T04:40:47.875Z,5.28
2017-03-11T04:41:56.552Z,5.24
2017-03-11T04:43:06.015Z,5.38
2017-03-11T04:44:16.219Z,5.33
2017-03-11T04:45:25.680Z,5.31
2017-03-11T04:46:35.533Z,5.3
2017-03-11T04:47:44.988Z,5.25
2017-03-11T04:48:54.446Z,5.18
2017-03-11T04:50:04.667Z,5.22
2017-03-11T04:51:13.345Z,5.24
2017-03-11T04:52:22.808Z,5.22
2017-03-11T04:53:31.876Z,5.22
2017-03-11T04:54:40.978Z,5.24
2017-03-11T04:55:50.437Z,5.09
2017-03-11T04:57:00.311Z,5.04
2017-03-11T04:58:09.384Z,5.06
2017-03-11T04:59:18.442Z,4.86
2017-03-11T05:00:27.544Z,4.85
2017-03-11T05:01:37.384Z,4.82
2017-03-11T05:02:47.237Z,4.73
2017-03-11T05:03:56.714Z,4.67
2017-03-11T05:05:06.591Z,4.65
2017-03-11T05:06:16.045Z,4.63
2017-03-11T05:07:25.103Z,4.58
2017-03-11T05:08:34.175Z,4.54
2017-03-11T05:09:43.515Z,4.41
2017-03-11T05:10:53.373Z,4.33
2017-03-11T05:12:03.200Z,4.26
2017-03-11T05:13:12.670Z,4.12
2017-03-11T05:14:21.726Z,4.02
2017-03-11T05:15:30.809Z,3.96
2017-03-11T05:16:39.881Z,4.05
2017-03-11T05:17:48.564Z,3.88
2017-03-11T05:18:57.639Z,3.8
2017-03-11T05:20:07.488Z,3.87
2017-03-11T05:21:17.216Z,3.8
2017-03-11T05:22:26.670Z,3.73
2017-03-11T05:23:36.140Z,3.62
2017-03-11T05:24:45.208Z,3.62
2017-03-11T05:25:54.653Z,3.57
2017-03-11T05:27:04.494Z,3.62
2017-03-11T05:28:13.557Z,3.66
2017-03-11T05:29:23.043Z,3.54
2017-03-11T05:30:32.881Z,3.54
2017-03-11T05:31:41.968Z,3.52
2017-03-11T05:32:51.298Z,3.35
2017-03-11T05:34:00.370Z,3.42
2017-03-11T05:35:09.832Z,3.35
2017-03-11T05:36:18.916Z,3.23
2017-03-11T05:37:27.615Z,3.18
2017-03-11T05:38:36.680Z,2.92
2017-03-11T05:39:46.522Z,2.96
2017-03-11T05:40:55.585Z,2.89
2017-03-11T05:42:04.656Z,2.77
2017-03-11T05:43:14.102Z,2.75
2017-03-11T05:44:23.432Z,2.9
2017-03-11T05:45:32.104Z,2.87
2017-03-11T05:46:41.167Z,2.85
2017-03-11T05:47:51.021Z,2.82
2017-03-11T05:49:00.861Z,2.96
2017-03-11T05:50:10.701Z,3.1
2017-03-11T05:51:20.528Z,3.08
2017-03-11T05:52:29.972Z,3.11
2017-03-11T05:53:39.429Z,3.11
2017-03-11T05:54:49.255Z,3.02
2017-03-11T05:55:59.344Z,2.9
2017-03-11T05:57:09.181Z,2.81
2017-03-11T05:58:17.869Z,2.82
2017-03-11T05:59:27.313Z,2.69
2017-03-11T06:00:37.152Z,2.71
2017-03-11T06:01:46.612Z,2.57
2017-03-11T06:02:55.670Z,2.52
2017-03-11T06:04:05.135Z,2.42
2017-03-11T06:05:15.011Z,2.43
2017-03-11T06:06:24.090Z,2.42
2017-03-11T06:07:33.840Z,2.39
2017-03-11T06:08:43.289Z,2.52
2017-03-11T06:09:53.113Z,2.57
2017-03-11T06:11:02.595Z,2.63
2017-03-11T06:12:12.047Z,2.66
2017-03-11T06:13:20.749Z,2.72
2017-03-11T06:14:29.845Z,2.75
2017-03-11T06:15:40.054Z,2.77
2017-03-11T06:16:49.122Z,2.71
2017-03-11T06:17:58.960Z,2.71
2017-03-11T06:19:08.669Z,2.87
2017-03-11T06:20:18.527Z,2.93
2017-03-11T06:21:27.224Z,2.97
2017-03-11T06:22:35.921Z,3.17
2017-03-11T06:23:45.753Z,3.11
2017-03-11T06:24:55.579Z,3.11
2017-03-11T06:26:04.656Z,3.15
2017-03-11T06:27:13.724Z,3.31
2017-03-11T06:28:23.176Z,3.28
2017-03-11T06:29:32.241Z,3.4
2017-03-11T06:30:41.629Z,3.4
2017-03-11T06:31:50.312Z,3.48
2017-03-11T06:33:00.140Z,3.54
2017-03-11T06:34:10.368Z,3.61
2017-03-11T06:35:19.827Z,3.62
2017-03-11T06:36:29.285Z,3.57
2017-03-11T06:37:38.354Z,3.78
2017-03-11T06:38:47.414Z,3.76
2017-03-11T06:39:56.880Z,3.88
2017-03-11T06:41:06.316Z,3.91
2017-03-11T06:42:15.303Z,3.94
2017-03-11T06:43:24.742Z,4.08
2017-03-11T06:44:33.833Z,4.27
2017-03-11T06:45:43.278Z,4.24
2017-03-11T06:46:52.735Z,4.47
2017-03-11T06:48:02.584Z,4.51
2017-03-11T06:49:11.677Z,4.65
2017-03-11T06:50:21.535Z,4.7
2017-03-11T06:51:31.358Z,4.85
2017-03-11T06:52:41.202Z,4.97
2017-03-11T06:53:50.939Z,5.1
2017-03-11T06:55:00.004Z,5.09
2017-03-11T06:56:08.699Z,5.06
2017-03-11T06:57:18.159Z,5.02
2017-03-11T06:58:27.638Z,5.2
2017-03-11T06:59:36.744Z,5.18
2017-03-11T07:00:45.821Z,5.25
2017-03-11T07:01:55.262Z,5.25
2017-03-11T07:03:04.319Z,5.31
2017-03-11T07:04:13.794Z,5.43
2017-03-11T07:05:22.864Z,5.39
2017-03-11T07:06:32.339Z,5.28
2017-03-11T07:07:42.173Z,5.43
2017-03-11T07:08:51.232Z,5.56
2017-03-11T07:10:00.690Z,5.61
2017-03-11T07:11:10.773Z,5.57
2017-03-11T07:12:20.226Z,5.74
2017-03-11T07:13:29.802Z,5.68
2017-03-11T07:14:38.894Z,5.75
2017-03-11T07:15:48.342Z,5.81
2017-03-11T07:16:57.806Z,5.85
2017-03-11T07:18:06.494Z,5.91
2017-03-11T07:19:15.988Z,5.9
2017-03-11T07:20:24.668Z,5.96
2017-03-11T07:21:33.744Z,6.04
2017-03-11T07:22:43.067Z,6.04
2017-03-11T07:23:52.148Z,6.14
2017-03-11T07:25:01.227Z,6.14
2017-03-11T07:26:10.669Z,6.31
2017-03-11T07:27:20.500Z,6.3
2017-03-11T07:28:29.964Z,6.33
2017-03-11T07:29:39.408Z,6.55
2017-03-11T07:30:48.855Z,6.51
2017-03-11T07:31:58.297Z,6.67
2017-03-11T07:33:08.138Z,6.77
2017-03-11T07:34:17.841Z,6.79
2017-03-11T07:35:26.914Z,7.03
2017-03-11T07:36:36.380Z,6.99
2017-03-11T07:37:46.232Z,7.02
2017-03-11T07:38:55.321Z,7.05
2017-03-11T07:40:04.396Z,7.16
2017-03-11T07:41:14.220Z,7.3
2017-03-11T07:42:23.296Z,7.31
2017-03-11T07:43:32.786Z,7.45
2017-03-11T07:44:42.621Z,7.43
2017-03-11T07:45:52.364Z,7.5
2017-03-11T07:47:01.822Z,7.46
2017-03-11T07:48:11.275Z,7.57
2017-03-11T07:49:21.117Z,7.69
2017-03-11T07:50:30.582Z,7.68
2017-03-11T07:51:40.428Z,7.68
2017-03-11T07:52:50.265Z,7.83
2017-03-11T07:53:59.345Z,7.98
2017-03-11T07:55:08.797Z,7.92
2017-03-11T07:56:18.249Z,8.01
2017-03-11T07:57:27.381Z,8.02
2017-03-11T07:58:37.977Z,8.15
2017-03-11T07:59:47.564Z,8.2
2017-03-11T08:00:57.394Z,8.38
2017-03-11T08:02:07.263Z,8.45
2017-03-11T08:03:17.102Z,8.45
2017-03-11T08:04:26.977Z,8.62
2017-03-11T08:05:35.678Z,8.74
2017-03-11T08:06:45.144Z,8.87
2017-03-11T08:07:55.004Z,9.04
2017-03-11T08:09:04.721Z,9.21
2017-03-11T08:10:14.576Z,9.32
2017-03-11T08:11:24.407Z,9.42
2017-03-11T08:12:34.852Z,9.43
2017-03-11T08:13:43.634Z,9.57
2017-03-11T08:14:53.908Z,9.6
2017-03-11T08:16:03.390Z,9.66
2017-03-11T08:17:12.475Z,9.6
2017-03-11T08:18:21.548Z,9.74
2017-03-11T08:19:30.990Z,9.71
2017-03-11T08:20:40.716Z,9.75
2017-03-11T08:21:50.177Z,9.81
2017-03-11T08:23:00.274Z,9.91
2017-03-11T08:24:10.407Z,9.91
2017-03-11T08:25:19.574Z,9.97
2017-03-11T08:26:29.023Z,10.05
2017-03-11T08:27:38.062Z,10.08
2017-03-11T08:28:47.929Z,10.09
2017-03-11T08:29:57.016Z,10.25
2017-03-11T08:31:06.488Z,10.25
2017-03-11T08:32:16.339Z,10.34
2017-03-11T08:33:25.054Z,10.4
2017-03-11T08:34:34.138Z,10.4
2017-03-11T08:35:43.609Z,10.44
2017-03-11T08:36:53.438Z,10.6
2017-03-11T08:38:03.164Z,10.7
2017-03-11T08:39:12.229Z,10.63
2017-03-11T08:40:20.939Z,10.68
2017-03-11T08:41:30.037Z,10.67
2017-03-11T08:42:39.513Z,10.6
2017-03-11T08:43:49.525Z,10.7
2017-03-11T08:44:59.054Z,10.63
2017-03-11T08:46:08.135Z,10.71
2017-03-11T08:47:17.585Z,10.67
2017-03-11T08:48:26.284Z,10.67
2017-03-11T08:49:35.293Z,10.79
2017-03-11T08:50:45.146Z,10.81
2017-03-11T08:51:54.258Z,10.88
2017-03-11T08:53:03.340Z,10.78
2017-03-11T08:54:13.376Z,11.02
2017-03-11T08:55:22.836Z,11
2017-03-11T08:56:31.901Z,11.18
2017-03-11T08:57:40.981Z,11.19
2017-03-11T08:58:50.865Z,11.28
2017-03-11T08:59:59.943Z,11.35
2017-03-11T09:01:10.785Z,11.44
2017-03-11T09:02:19.490Z,11.6
2017-03-11T09:03:28.966Z,11.67
2017-03-11T09:04:38.057Z,11.88
2017-03-11T09:05:47.139Z,11.91
2017-03-11T09:06:56.233Z,11.96
2017-03-11T09:08:05.697Z,12.16
2017-03-11T09:09:15.563Z,12.31
2017-03-11T09:10:24.669Z,12.34
2017-03-11T09:11:34.175Z,12.46
2017-03-11T09:12:43.514Z,12.46
2017-03-11T09:13:52.604Z,12.41
2017-03-11T09:15:02.086Z,12.47
2017-03-11T09:16:11.913Z,12.46
2017-03-11T09:17:21.389Z,12.59
2017-03-11T09:18:30.471Z,12.65
2017-03-11T09:19:39.920Z,12.7
2017-03-11T09:20:48.624Z,12.74
2017-03-11T09:21:57.694Z,12.75
2017-03-11T09:23:06.800Z,12.82
2017-03-11T09:24:15.759Z,12.93
2017-03-11T09:25:25.618Z,13.08
2017-03-11T09:26:35.073Z,13.2
2017-03-11T09:27:44.159Z,13.38
2017-03-11T09:28:53.632Z,13.55
2017-03-11T09:30:03.864Z,13.79
2017-03-11T09:31:12.934Z,13.89
2017-03-11T09:32:22.796Z,13.87
2017-03-11T09:33:31.486Z,14.04
2017-03-11T09:34:41.330Z,14.27
2017-03-11T09:35:51.094Z,14.37
2017-03-11T09:37:00.201Z,14.54
2017-03-11T09:38:09.299Z,14.73
2017-03-11T09:39:18.008Z,14.89
2017-03-11T09:40:26.701Z,15.17
2017-03-11T09:41:36.161Z,15.54
2017-03-11T09:42:45.642Z,15.75
2017-03-11T09:43:54.370Z,15.8
2017-03-11T09:45:04.221Z,15.97
2017-03-11T09:46:13.327Z,16.08
2017-03-11T09:47:22.326Z,16.23
2017-03-11T09:48:31.409Z,16.3
2017-03-11T09:49:41.255Z,16.25
2017-03-11T09:50:50.713Z,16.3
2017-03-11T09:52:00.190Z,16.43
2017-03-11T09:53:08.888Z,16.75
2017-03-11T09:54:18.521Z,17.04
2017-03-11T09:55:27.641Z,17.34
2017-03-11T09:56:37.676Z,17.38
2017-03-11T09:57:47.716Z,17.66
2017-03-11T09:58:57.441Z,17.72
2017-03-11T10:00:07.329Z,17.79
2017-03-11T10:01:17.582Z,17.81
2017-03-11T10:02:27.057Z,17.95
2017-03-11T10:03:36.156Z,18.15
2017-03-11T10:04:45.296Z,18.36
2017-03-11T10:05:55.563Z,18.57
2017-03-11T10:07:04.383Z,18.73
2017-03-11T10:08:13.855Z,18.76
2017-03-11T10:09:23.732Z,18.76
2017-03-11T10:10:33.546Z,18.94
2017-03-11T10:11:43.010Z,18.87
2017-03-11T10:12:52.131Z,19.11
2017-03-11T10:14:01.244Z,19.25
2017-03-11T10:15:10.794Z,19.28
2017-03-11T10:16:19.715Z,19.41
2017-03-11T10:17:28.820Z,19.59
2017-03-11T10:18:39.073Z,19.83
2017-03-11T10:19:48.947Z,19.88
2017-03-11T10:20:58.101Z,19.92
2017-03-11T10:22:07.538Z,20.01
2017-03-11T10:23:17.001Z,20.26
2017-03-11T10:24:26.507Z,20.33
2017-03-11T10:25:35.206Z,20.52
2017-03-11T10:26:44.009Z,20.57
2017-03-11T10:27:53.122Z,20.51
2017-03-11T10:29:02.685Z,20.41
2017-03-11T10:30:12.627Z,20.24
2017-03-11T10:31:21.726Z,20.02
2017-03-11T10:32:31.244Z,19.92
2017-03-11T10:33:41.009Z,19.81
2017-03-11T10:34:51.032Z,19.59
2017-03-11T10:36:00.873Z,19.58
2017-03-11T10:37:10.016Z,19.26
2017-03-11T10:38:19.498Z,19.13
2017-03-11T10:39:28.964Z,19.13
2017-03-11T10:40:38.434Z,19.26
2017-03-11T10:41:48.328Z,19.19
2017-03-11T10:42:57.817Z,19.23
2017-03-11T10:44:07.289Z,19.36
2017-03-11T10:45:17.875Z,19.43
2017-03-11T10:46:26.614Z,19.46
2017-03-11T10:47:36.459Z,19.48
2017-03-11T10:48:45.913Z,19.4
2017-03-11T10:49:56.231Z,19.36
2017-03-11T10:51:06.998Z,19.5
2017-03-11T10:52:15.744Z,19.46
2017-03-11T10:53:25.610Z,19.44
2017-03-11T10:54:34.740Z,19.46
2017-03-11T10:55:43.828Z,19.61
2017-03-11T10:56:53.633Z,19.55
2017-03-11T10:58:03.112Z,19.68
2017-03-11T10:59:12.302Z,19.81
2017-03-11T11:00:22.186Z,19.8
2017-03-11T11:01:31.666Z,19.83
2017-03-11T11:02:41.549Z,19.8
2017-03-11T11:03:51.450Z,19.76
2017-03-11T11:05:00.166Z,19.74
2017-03-11T11:06:10.019Z,19.62
2017-03-11T11:07:18.736Z,19.73
2017-03-11T11:08:28.220Z,19.65
2017-03-11T11:09:37.693Z,19.61
2017-03-11T11:10:46.779Z,19.58
2017-03-11T11:11:55.499Z,19.46
2017-03-11T11:13:04.972Z,19.22
2017-03-11T11:14:14.457Z,19.31
2017-03-11T11:15:24.473Z,19.32
2017-03-11T11:16:33.371Z,19.32
2017-03-11T11:17:43.427Z,19.5
2017-03-11T11:18:52.893Z,19.68
2017-03-11T11:20:02.732Z,19.73
2017-03-11T11:21:12.270Z,19.74
2017-03-11T11:22:21.740Z,19.83
2017-03-11T11:23:30.833Z,19.59
2017-03-11T11:24:39.542Z,19.48
2017-03-11T11:25:49.753Z,19.26
2017-03-11T11:26:58.832Z,19.21
2017-03-11T11:28:07.950Z,19.08
2017-03-11T11:29:17.029Z,19.16
2017-03-11T11:30:26.200Z,19.18
2017-03-11T11:31:35.278Z,19.22
2017-03-11T11:32:45.146Z,19.16
2017-03-11T11:33:53.865Z,19.14
2017-03-11T11:35:03.354Z,19.16
2017-03-11T11:36:13.281Z,19.19
2017-03-11T11:37:22.764Z,19.21
2017-03-11T11:38:32.293Z,19.11
2017-03-11T11:39:41.795Z,19.1
2017-03-11T11:40:50.886Z,19.02
2017-03-11T11:42:00.370Z,18.87
2017-03-11T11:43:10.084Z,18.92
2017-03-11T11:44:19.577Z,19.02
2017-03-11T11:45:28.282Z,19.16
2017-03-11T11:46:38.169Z,19.26
2017-03-11T11:47:46.867Z,19.31
2017-03-11T11:48:56.356Z,19.36
2017-03-11T11:50:06.585Z,19.37
2017-03-11T11:51:15.709Z,19.43
2017-03-11T11:52:24.414Z,19.48
2017-03-11T11:53:33.509Z,19.46
2017-03-11T11:54:42.905Z,19.58
2017-03-11T11:55:52.055Z,19.65
2017-03-11T11:57:01.899Z,19.58
2017-03-11T11:58:11.376Z,19.48
2017-03-11T11:59:20.863Z,19.41
2017-03-11T12:00:30.338Z,19.4
2017-03-11T12:01:39.825Z,19.43
2017-03-11T12:02:48.561Z,19.33
2017-03-11T12:03:57.656Z,19.23
2017-03-11T12:05:07.518Z,19.25
2017-03-11T12:06:17.235Z,19.39
2017-03-11T12:07:26.723Z,19.36
2017-03-11T12:08:36.195Z,19.32
2017-03-11T12:09:44.911Z,19.16
2017-03-11T12:10:53.990Z,19.1
2017-03-11T12:12:03.469Z,19.06
2017-03-11T12:13:13.710Z,18.99
2017-03-11T12:14:22.788Z,18.9
2017-03-11T12:15:31.890Z,19.02
2017-03-11T12:16:40.972Z,19.04
2017-03-11T12:17:50.060Z,19.18
2017-03-11T12:19:00.291Z,19.13
2017-03-11T12:20:09.782Z,19.08
2017-03-11T12:21:18.879Z,19.11
2017-03-11T12:22:27.588Z,19.14
2017-03-11T12:23:36.673Z,19.13
2017-03-11T12:24:46.576Z,18.99
2017-03-11T12:25:55.315Z,19.06
2017-03-11T12:27:04.404Z,18.99
2017-03-11T12:28:14.270Z,19.11
2017-03-11T12:29:24.060Z,19.25
2017-03-11T12:30:33.538Z,19.22
2017-03-11T12:31:43.001Z,19.22
2017-03-11T12:32:52.900Z,19.31
2017-03-11T12:34:02.373Z,19.32
2017-03-11T12:35:12.218Z,19.18
2017-03-11T12:36:21.688Z,19.14
2017-03-11T12:37:30.765Z,19.26
2017-03-11T12:38:40.233Z,19.33
2017-03-11T12:39:50.077Z,19.51
2017-03-11T12:40:59.793Z,19.62
2017-03-11T12:42:09.259Z,19.71
2017-03-11T12:43:18.755Z,19.74
2017-03-11T12:44:27.848Z,19.84
2017-03-11T12:45:36.557Z,19.98
2017-03-11T12:46:45.269Z,19.98
2017-03-11T12:47:54.747Z,20.08
2017-03-11T12:49:03.830Z,20.01
2017-03-11T12:50:12.920Z,19.86
2017-03-11T12:51:22.767Z,19.88
2017-03-11T12:52:32.507Z,20.05
2017-03-11T12:53:42.376Z,19.96
2017-03-11T12:54:52.255Z,19.76
2017-03-11T12:56:02.100Z,19.63
2017-03-11T12:57:10.810Z,19.62
2017-03-11T12:58:20.284Z,19.56
2017-03-11T12:59:30.192Z,19.47
2017-03-11T13:00:39.330Z,19.59
2017-03-11T13:01:49.557Z,19.61
2017-03-11T13:02:58.631Z,19.61
2017-03-11T13:04:08.090Z,19.46
2017-03-11T13:05:17.973Z,19.41
2017-03-11T13:06:27.431Z,19.5
2017-03-11T13:07:36.152Z,19.62
2017-03-11T13:08:46.400Z,19.63
2017-03-11T13:09:56.493Z,19.54
2017-03-11T13:11:05.220Z,19.5
2017-03-11T13:12:14.311Z,19.4
2017-03-11T13:13:23.782Z,19.37
2017-03-11T13:14:33.261Z,19.31
2017-03-11T13:15:42.763Z,19.29
2017-03-11T13:16:52.985Z,19.39
2017-03-11T13:18:02.472Z,19.5
2017-03-11T13:19:11.546Z,19.37
2017-03-11T13:20:21.389Z,19.33
2017-03-11T13:21:31.114Z,19.21
2017-03-11T13:22:40.585Z,19.14
2017-03-11T13:23:50.476Z,19.02
2017-03-11T13:25:00.356Z,19.04
2017-03-11T13:26:09.470Z,19.13
2017-03-11T13:27:19.330Z,19.21
2017-03-11T13:28:28.802Z,19.28
2017-03-11T13:29:38.011Z,19.44
2017-03-11T13:30:47.102Z,19.33
2017-03-11T13:31:56.978Z,19.26
2017-03-11T13:33:06.325Z,19.07
2017-03-11T13:34:15.791Z,19.07
2017-03-11T13:35:24.896Z,19.07
2017-03-11T13:36:34.388Z,19.04
2017-03-11T13:37:43.114Z,19.08
2017-03-11T13:38:53.169Z,19.31
2017-03-11T13:40:01.888Z,19.26
2017-03-11T13:41:11.399Z,19.41
2017-03-11T13:42:20.867Z,19.44
2017-03-11T13:43:29.959Z,19.54
2017-03-11T13:44:40.068Z,19.63
2017-03-11T13:45:49.547Z,19.63
2017-03-11T13:46:58.644Z,19.63
2017-03-11T13:48:08.122Z,19.74
2017-03-11T13:49:17.583Z,19.76
2017-03-11T13:50:27.051Z,19.87
2017-03-11T13:51:36.138Z,19.91
2017-03-11T13:52:46.014Z,19.83
2017-03-11T13:53:55.520Z,19.86
2017-03-11T13:55:04.622Z,19.81
2017-03-11T13:56:15.100Z,19.76
2017-03-11T13:57:23.824Z,19.81
2017-03-11T13:58:32.517Z,19.74
2017-03-11T13:59:42.043Z,19.8
2017-03-11T14:00:50.760Z,19.8
2017-03-11T14:02:00.243Z,19.77
2017-03-11T14:03:09.700Z,19.81
2017-03-11T14:04:18.792Z,19.74
2017-03-11T14:05:27.898Z,19.78
2017-03-11T14:06:37.383Z,19.88
2017-03-11T14:07:46.750Z,19.95
2017-03-11T14:08:55.846Z,19.87
2017-03-11T14:10:05.319Z,19.99
2017-03-11T14:11:14.773Z,19.91
2017-03-11T14:12:23.896Z,19.99
2017-03-11T14:13:33.002Z,19.94
2017-03-11T14:14:42.489Z,20.01
2017-03-11T14:15:51.970Z,19.95
2017-03-11T14:17:01.443Z,19.94
2017-03-11T14:18:11.312Z,19.94
2017-03-11T14:19:21.456Z,19.78
2017-03-11T14:20:30.553Z,19.71
2017-03-11T14:21:40.080Z,19.62
2017-03-11T14:22:49.587Z,19.54
2017-03-11T14:23:59.052Z,19.4
2017-03-11T14:25:08.538Z,19.32
2017-03-11T14:26:17.613Z,19.28
2017-03-11T14:27:27.070Z,19.07
2017-03-11T14:28:36.206Z,19.13
2017-03-11T14:29:45.277Z,18.99
2017-03-11T14:30:55.796Z,19.08
2017-03-11T14:32:04.515Z,19.08
2017-03-11T14:33:14.014Z,19.04
2017-03-11T14:34:23.493Z,19
2017-03-11T14:35:33.346Z,18.94
2017-03-11T14:36:42.830Z,18.8
2017-03-11T14:37:51.918Z,18.69
2017-03-11T14:39:01.386Z,18.48
2017-03-11T14:40:10.476Z,18.45
2017-03-11T14:41:20.355Z,18.29
2017-03-11T14:42:29.740Z,18.29
2017-03-11T14:43:39.578Z,18.3
2017-03-11T14:44:48.664Z,18.25
2017-03-11T14:45:57.763Z,18.11
2017-03-11T14:47:06.858Z,18.17
2017-03-11T14:48:16.337Z,18.14
2017-03-11T14:49:25.032Z,18.11
2017-03-11T14:50:34.139Z,18.11
2017-03-11T14:51:44.017Z,18
2017-03-11T14:52:53.879Z,17.87
2017-03-11T14:54:02.958Z,17.75
2017-03-11T14:55:12.454Z,17.7
2017-03-11T14:56:21.544Z,17.51
2017-03-11T14:57:31.026Z,17.31
2017-03-11T14:58:40.509Z,17.31
2017-03-11T14:59:50.358Z,17.21
2017-03-11T15:00:59.054Z,17.19
2017-03-11T15:02:08.534Z,17.23
2017-03-11T15:03:17.617Z,17.23
2017-03-11T15:04:27.097Z,17.15
2017-03-11T15:05:36.824Z,16.98
2017-03-11T15:06:46.297Z,17
2017-03-11T15:07:56.152Z,16.89
2017-03-11T15:09:05.612Z,16.79
2017-03-11T15:10:15.066Z,16.91
2017-03-11T15:11:25.285Z,16.93
2017-03-11T15:12:35.145Z,16.97
2017-03-11T15:13:44.996Z,16.94